Time;durP1;ratioP1;P1;durP2;ratioP2;P2;SDS_P1;SDS_P2;PMS_P1;PMS_P2;Temp;Humidity;BMP_temperature;BMP_pressure;BME280_temperature;BME280_humidity;BME280_pressure;Samples;Min_cycle;Max_cycle;Signal;HPM_P1;HPM_P2
2023/12/01 00:01:39;;;;;;;29.48;17.08;;;3.10;99.90;;;;;;5026172;28;20029;-70
2023/12/01 00:04:05;;;;;;;33.28;18.75;;;3.10;99.90;;;;;;5035128;28;20041;-70
2023/12/01 00:06:31;;;;;;;33.40;18.17;;;3.10;99.90;;;;;;5028687;28;20038;-69
2023/12/01 00:08:56;;;;;;;34.53;19.20;;;3.20;99.90;;;;;;5027163;28;20121;-69
2023/12/01 00:11:22;;;;;;;31.98;17.52;;;3.20;99.90;;;;;;5025997;28;20116;-68
2023/12/01 00:13:47;;;;;;;31.85;19.05;;;3.20;99.90;;;;;;5029987;28;20028;-69
2023/12/01 00:16:13;;;;;;;36.85;19.80;;;3.20;99.90;;;;;;5029359;28;20079;-69
2023/12/01 00:18:39;;;;;;;39.55;20.83;;;3.10;99.90;;;;;;5032516;28;20369;-68
2023/12/01 00:21:04;;;;;;;30.15;18.65;;;3.10;99.90;;;;;;5029474;28;20581;-68
2023/12/01 00:23:31;;;;;;;39.00;19.85;;;3.10;99.90;;;;;;5026791;28;20396;-69
2023/12/01 00:26:03;;;;;;;39.05;20.90;;;3.00;99.90;;;;;;5027159;28;20551;-68
2023/12/01 00:28:28;;;;;;;31.50;18.85;;;3.00;99.90;;;;;;5029042;28;20034;-70
2023/12/01 00:30:54;;;;;;;30.40;18.88;;;3.00;99.90;;;;;;5030930;28;20555;-69
2023/12/01 00:33:22;;;;;;;30.08;18.42;;;3.00;99.90;;;;;;5032285;28;20096;-70
2023/12/01 00:35:48;;;;;;;31.27;18.10;;;2.90;99.90;;;;;;5030080;28;20104;-69
2023/12/01 00:38:13;;;;;;;28.40;17.23;;;3.00;99.90;;;;;;5027818;28;20073;-69
2023/12/01 00:40:42;;;;;;;29.50;17.75;;;2.90;99.90;;;;;;5027514;28;20022;-69
2023/12/01 00:43:09;;;;;;;29.70;18.20;;;2.90;99.90;;;;;;5029215;28;20034;-70
2023/12/01 00:45:35;;;;;;;26.88;16.60;;;2.90;99.90;;;;;;5026408;28;20076;-69
2023/12/01 00:48:07;;;;;;;31.65;18.92;;;2.90;99.90;;;;;;5028898;28;20100;-69
2023/12/01 00:50:32;;;;;;;32.35;18.65;;;2.90;99.90;;;;;;5025448;28;20032;-69
2023/12/01 00:53:04;;;;;;;31.83;17.90;;;2.90;99.90;;;;;;5030030;28;20468;-69
2023/12/01 00:55:29;;;;;;;31.90;18.50;;;2.90;99.90;;;;;;5030362;28;20084;-70
2023/12/01 00:57:58;;;;;;;27.70;17.67;;;2.90;99.90;;;;;;5030866;28;20049;-70
2023/12/01 01:00:24;;;;;;;30.85;17.50;;;3.00;99.90;;;;;;5030323;28;20048;-70
2023/12/01 01:02:50;;;;;;;30.25;16.50;;;3.00;99.90;;;;;;5028032;28;20029;-69
2023/12/01 01:05:25;;;;;;;31.10;18.40;;;3.00;99.90;;;;;;5022993;28;21127;-70
2023/12/01 01:07:50;;;;;;;32.33;17.38;;;3.00;99.90;;;;;;5032126;28;20120;-70
2023/12/01 01:10:16;;;;;;;31.58;18.80;;;3.10;99.90;;;;;;5028431;28;20105;-70
2023/12/01 01:12:41;;;;;;;29.40;17.95;;;3.10;99.90;;;;;;5033487;28;20050;-69
2023/12/01 01:15:10;;;;;;;33.40;18.95;;;3.10;99.90;;;;;;5025763;28;20018;-70
2023/12/01 01:17:41;;;;;;;28.13;17.52;;;3.10;99.90;;;;;;5026690;28;20100;-70
2023/12/01 01:20:12;;;;;;;30.77;17.58;;;3.20;99.90;;;;;;5025803;28;20037;-70
2023/12/01 01:22:48;;;;;;;26.50;16.15;;;3.20;99.90;;;;;;5027110;28;20511;-70
2023/12/01 01:25:13;;;;;;;25.35;14.65;;;3.10;99.90;;;;;;5028029;28;20029;-70
2023/12/01 01:27:39;;;;;;;31.02;16.17;;;3.10;99.90;;;;;;5030159;28;20124;-69
2023/12/01 01:30:05;;;;;;;21.85;13.60;;;3.10;99.90;;;;;;5028800;28;20089;-70
2023/12/01 01:32:31;;;;;;;27.45;15.15;;;3.00;99.90;;;;;;5029129;28;20488;-69
2023/12/01 01:34:57;;;;;;;24.50;14.88;;;3.00;99.90;;;;;;5026787;28;20033;-69
2023/12/01 01:37:22;;;;;;;27.05;15.23;;;3.00;99.90;;;;;;5025009;28;20116;-70
2023/12/01 01:39:51;;;;;;;28.38;15.50;;;3.00;99.90;;;;;;5025782;28;20037;-69
2023/12/01 01:42:16;;;;;;;26.83;15.82;;;3.00;99.90;;;;;;5030338;28;20562;-69
2023/12/01 01:44:43;;;;;;;25.65;15.57;;;3.00;99.90;;;;;;5024324;28;20033;-68
2023/12/01 01:47:12;;;;;;;26.10;15.38;;;3.00;99.90;;;;;;5028390;28;20030;-68
2023/12/01 01:49:38;;;;;;;25.10;15.63;;;3.00;99.90;;;;;;5027336;28;20091;-69
2023/12/01 01:52:11;;;;;;;23.02;13.98;;;3.00;99.90;;;;;;5026457;28;20587;-69
2023/12/01 01:54:37;;;;;;;28.07;15.80;;;3.00;99.90;;;;;;5029417;28;20025;-69
2023/12/01 01:57:03;;;;;;;25.83;15.02;;;3.00;99.90;;;;;;5028728;28;20026;-69
2023/12/01 01:59:35;;;;;;;26.70;16.08;;;2.90;99.90;;;;;;5031848;28;20036;-69
2023/12/01 02:02:00;;;;;;;26.42;16.23;;;2.90;99.90;;;;;;5025875;28;20028;-69
2023/12/01 02:04:35;;;;;;;28.52;17.02;;;3.00;99.90;;;;;;5024994;28;20471;-69
2023/12/01 02:07:01;;;;;;;26.27;15.52;;;2.90;99.90;;;;;;5026785;28;20025;-69
2023/12/01 02:09:27;;;;;;;26.40;15.02;;;2.90;99.90;;;;;;5024839;28;20396;-69
2023/12/01 02:11:53;;;;;;;26.38;16.17;;;2.90;99.90;;;;;;5028172;28;20200;-69
2023/12/01 02:14:19;;;;;;;24.88;15.43;;;2.90;99.90;;;;;;5029863;28;20104;-69
2023/12/01 02:16:47;;;;;;;22.65;14.38;;;2.90;99.90;;;;;;5022394;28;20025;-68
2023/12/01 02:19:13;;;;;;;26.27;15.10;;;2.90;99.90;;;;;;5031043;28;20040;-69
2023/12/01 02:21:45;;;;;;;23.33;14.63;;;2.90;99.90;;;;;;5028022;28;20020;-69
2023/12/01 02:24:23;;;;;;;26.05;14.80;;;2.90;99.90;;;;;;5028884;28;20025;-68
2023/12/01 02:26:49;;;;;;;25.65;14.57;;;2.90;99.90;;;;;;5025435;28;20032;-69
2023/12/01 02:29:24;;;;;;;21.65;13.68;;;2.90;99.90;;;;;;5027588;28;20516;-69
2023/12/01 02:31:55;;;;;;;21.83;14.10;;;2.80;99.90;;;;;;5030152;28;20084;-69
2023/12/01 02:34:21;;;;;;;24.60;14.32;;;2.80;99.90;;;;;;5026750;28;20030;-69
2023/12/01 02:36:47;;;;;;;23.48;13.98;;;2.80;99.90;;;;;;5027073;28;20112;-69
2023/12/01 02:39:18;;;;;;;20.88;13.57;;;2.80;99.90;;;;;;5026194;28;20026;-69
2023/12/01 02:41:44;;;;;;;22.10;13.27;;;2.70;99.90;;;;;;5027894;28;20117;-69
2023/12/01 02:44:12;;;;;;;22.25;13.57;;;2.60;99.90;;;;;;5018821;28;20112;-69
2023/12/01 02:46:40;;;;;;;24.58;13.77;;;2.60;99.90;;;;;;5033064;28;20554;-70
2023/12/01 02:49:08;;;;;;;20.73;13.65;;;2.50;99.90;;;;;;5028072;28;20140;-68
2023/12/01 02:51:33;;;;;;;22.33;14.52;;;2.50;99.90;;;;;;5028283;28;20021;-69
2023/12/01 02:54:02;;;;;;;24.05;14.07;;;2.40;99.90;;;;;;5026803;28;20044;-68
2023/12/01 02:56:27;;;;;;;25.25;13.93;;;2.40;99.90;;;;;;5025303;28;20040;-69
2023/12/01 02:58:56;;;;;;;20.13;13.00;;;2.40;99.90;;;;;;5030973;28;20034;-69
2023/12/01 03:01:23;;;;;;;22.92;13.73;;;2.40;99.90;;;;;;5031842;28;20112;-69
2023/12/01 03:03:51;;;;;;;25.33;14.13;;;2.30;99.90;;;;;;5024172;28;20025;-69
2023/12/01 03:06:17;;;;;;;21.52;13.95;;;2.30;99.90;;;;;;5026960;28;20029;-68
2023/12/01 03:08:46;;;;;;;20.70;13.55;;;2.30;99.90;;;;;;5028045;28;20377;-69
2023/12/01 03:11:22;;;;;;;25.45;14.68;;;2.30;99.90;;;;;;5097808;22;20033;-74
2023/12/01 03:13:47;;;;;;;37.35;18.10;;;2.30;99.90;;;;;;5043298;28;20105;-74
2023/12/01 03:16:16;;;;;;;27.02;16.73;;;2.30;99.90;;;;;;5040340;28;20111;-74
2023/12/01 03:18:45;;;;;;;27.42;16.33;;;2.20;99.90;;;;;;5047363;28;20417;-74
2023/12/01 03:21:12;;;;;;;23.85;16.00;;;2.30;99.90;;;;;;5029658;28;20040;-74
2023/12/01 03:23:40;;;;;;;26.38;15.82;;;2.20;99.90;;;;;;5025536;28;20025;-74
2023/12/01 03:26:07;;;;;;;25.45;15.43;;;2.20;99.90;;;;;;5029788;28;20432;-74
2023/12/01 03:28:33;;;;;;;24.60;14.93;;;2.30;99.90;;;;;;5031463;28;20025;-75
2023/12/01 03:30:59;;;;;;;29.38;16.92;;;2.30;99.90;;;;;;5030084;28;20483;-74
2023/12/01 03:33:27;;;;;;;24.15;14.02;;;2.30;99.90;;;;;;5031399;28;20065;-73
2023/12/01 03:35:53;;;;;;;24.90;14.75;;;2.20;99.90;;;;;;5027931;28;20492;-74
2023/12/01 03:38:19;;;;;;;22.27;14.15;;;2.20;99.90;;;;;;5027739;28;20104;-74
2023/12/01 03:40:44;;;;;;;23.40;15.13;;;2.20;99.90;;;;;;5025290;28;20026;-75
2023/12/01 03:43:10;;;;;;;24.65;14.40;;;2.20;99.90;;;;;;5029782;28;20146;-74
2023/12/01 03:45:35;;;;;;;31.95;16.25;;;2.20;99.90;;;;;;5025689;28;20489;-74
2023/12/01 03:48:01;;;;;;;26.65;15.20;;;2.20;99.90;;;;;;5030564;28;21076;-74
2023/12/01 03:50:26;;;;;;;22.55;13.32;;;2.20;99.90;;;;;;5030235;28;20040;-74
2023/12/01 03:52:56;;;;;;;21.77;13.95;;;2.20;99.90;;;;;;5026927;28;20369;-74
2023/12/01 03:55:22;;;;;;;22.52;14.27;;;2.30;99.90;;;;;;5032880;28;20391;-74
2023/12/01 03:57:47;;;;;;;21.63;14.20;;;2.20;99.90;;;;;;5026639;28;20022;-74
2023/12/01 04:00:16;;;;;;;22.23;13.50;;;2.30;99.90;;;;;;5026288;28;20033;-74
2023/12/01 04:02:46;;;;;;;20.90;13.07;;;2.20;99.90;;;;;;5023391;28;20034;-73
2023/12/01 04:05:18;;;;;;;19.60;13.45;;;2.30;99.90;;;;;;5028459;28;20036;-74
2023/12/01 04:07:50;;;;;;;18.95;12.75;;;2.30;99.90;;;;;;5026777;28;20539;-74
2023/12/01 04:10:17;;;;;;;16.98;12.10;;;2.20;99.90;;;;;;5026864;28;20029;-74
2023/12/01 04:12:52;;;;;;;20.35;12.63;;;2.20;99.90;;;;;;5024924;28;20033;-74
2023/12/01 04:15:19;;;;;;;23.00;13.63;;;2.30;99.90;;;;;;5027440;28;20025;-74
2023/12/01 04:17:47;;;;;;;21.85;13.50;;;2.30;99.90;;;;;;5025879;28;20018;-74
2023/12/01 04:20:21;;;;;;;21.48;13.00;;;2.30;99.90;;;;;;5025799;28;20136;-74
2023/12/01 04:23:03;;;;;;;19.33;12.93;;;2.30;99.90;;;;;;5027096;28;20161;-73
2023/12/01 04:25:29;;;;;;;22.48;13.73;;;2.30;99.90;;;;;;5029911;28;20021;-74
2023/12/01 04:27:59;;;;;;;21.30;13.50;;;2.20;99.90;;;;;;5025687;28;20172;-73
2023/12/01 04:30:25;;;;;;;24.05;14.02;;;2.20;99.90;;;;;;5026919;28;20025;-74
2023/12/01 04:32:55;;;;;;;23.50;14.30;;;2.20;99.90;;;;;;5032615;28;20100;-74
2023/12/01 04:35:22;;;;;;;24.17;14.98;;;2.20;99.90;;;;;;5027063;28;21150;-74
2023/12/01 04:37:56;;;;;;;21.88;14.23;;;2.20;99.90;;;;;;5031827;28;20026;-74
2023/12/01 04:40:21;;;;;;;25.00;14.77;;;2.20;99.90;;;;;;5028649;28;20072;-74
2023/12/01 04:42:52;;;;;;;19.75;12.73;;;2.20;99.90;;;;;;5032196;28;20480;-74
2023/12/01 04:45:24;;;;;;;23.27;14.43;;;2.20;99.90;;;;;;5028148;28;20032;-73
2023/12/01 04:47:56;;;;;;;23.23;13.88;;;2.20;99.90;;;;;;5030736;28;20053;-73
2023/12/01 04:50:26;;;;;;;24.33;15.18;;;2.20;99.90;;;;;;5025904;28;20037;-73
2023/12/01 04:52:57;;;;;;;23.20;14.52;;;2.10;99.90;;;;;;5029882;28;20140;-73
2023/12/01 04:55:24;;;;;;;21.02;13.55;;;2.00;99.90;;;;;;5029894;28;20101;-73
2023/12/01 04:57:50;;;;;;;21.73;13.95;;;2.00;99.90;;;;;;5028046;28;20052;-73
2023/12/01 05:00:21;;;;;;;20.88;13.85;;;2.00;99.90;;;;;;5030043;28;20511;-73
2023/12/01 05:02:54;;;;;;;19.52;12.02;;;2.00;99.90;;;;;;5028781;28;20028;-73
2023/12/01 05:05:21;;;;;;;17.75;11.80;;;2.00;99.90;;;;;;5031719;28;20033;-73
2023/12/01 05:07:49;;;;;;;18.38;12.32;;;2.00;99.90;;;;;;5030464;28;20056;-73
2023/12/01 05:10:16;;;;;;;19.40;12.25;;;2.00;99.90;;;;;;5034210;28;20204;-73
2023/12/01 05:12:49;;;;;;;19.42;12.45;;;1.90;99.90;;;;;;5025215;28;20133;-73
2023/12/01 05:15:18;;;;;;;19.00;12.50;;;1.90;99.90;;;;;;5030855;28;20049;-73
2023/12/01 05:17:57;;;;;;;17.98;11.18;;;1.90;99.90;;;;;;5030886;28;20071;-74
2023/12/01 05:20:25;;;;;;;17.25;10.70;;;1.90;99.90;;;;;;5027897;28;20057;-74
2023/12/01 05:22:56;;;;;;;18.60;11.73;;;1.90;99.90;;;;;;5030900;28;20548;-73
2023/12/01 05:25:25;;;;;;;18.20;11.73;;;2.00;99.90;;;;;;5031185;28;20155;-73
2023/12/01 05:27:59;;;;;;;16.40;11.05;;;1.90;99.90;;;;;;5026794;28;20520;-74
2023/12/01 05:30:25;;;;;;;;;;;2.00;99.90;;;;;;5029373;28;20033;-73
2023/12/01 05:32:52;;;;;;;17.10;10.43;;;1.90;99.90;;;;;;5030937;28;19909;-73
2023/12/01 05:35:19;;;;;;;15.85;10.38;;;1.90;99.90;;;;;;5025392;28;20018;-73
2023/12/01 05:37:48;;;;;;;17.52;10.95;;;2.00;99.90;;;;;;5031122;28;20027;-72
2023/12/01 05:40:16;;;;;;;17.48;11.55;;;1.90;99.90;;;;;;5025360;28;20041;-72
2023/12/01 05:42:43;;;;;;;19.00;12.73;;;1.90;99.90;;;;;;5028621;28;20361;-73
2023/12/01 05:45:16;;;;;;;18.95;12.27;;;2.00;99.90;;;;;;5024866;28;20026;-72
2023/12/01 05:47:44;;;;;;;23.13;13.97;;;2.00;99.90;;;;;;5026721;28;20030;-72
2023/12/01 05:50:17;;;;;;;19.27;12.52;;;2.00;99.90;;;;;;5031189;28;20025;-73
2023/12/01 05:52:45;;;;;;;19.08;12.65;;;2.00;99.90;;;;;;5033086;28;20025;-73
2023/12/01 05:55:16;;;;;;;26.85;15.63;;;2.10;99.90;;;;;;5003474;28;20139;-73
2023/12/01 05:57:42;;;;;;;26.98;14.90;;;2.10;99.90;;;;;;5010300;28;20476;-73
2023/12/01 06:00:12;;;;;;;22.02;13.05;;;2.10;99.90;;;;;;5014039;28;20017;-73
2023/12/01 06:02:42;;;;;;;22.88;12.60;;;2.10;99.90;;;;;;5009695;28;20394;-73
2023/12/01 06:05:19;;;;;;;18.33;11.88;;;2.10;99.90;;;;;;5013480;28;20030;-73
2023/12/01 06:07:54;;;;;;;19.17;11.80;;;2.10;99.90;;;;;;5019336;28;20021;-73
2023/12/01 06:10:24;;;;;;;18.92;11.55;;;2.10;99.90;;;;;;5012518;28;20136;-73
2023/12/01 06:12:50;;;;;;;25.25;13.55;;;2.00;99.90;;;;;;5017389;28;20547;-73
2023/12/01 06:15:18;;;;;;;28.55;14.10;;;2.00;99.90;;;;;;5007846;28;20037;-73
2023/12/01 06:17:50;;;;;;;31.38;16.25;;;2.00;99.90;;;;;;5010683;28;20459;-72
2023/12/01 06:20:22;;;;;;;27.45;14.43;;;1.90;99.90;;;;;;5009545;28;20029;-72
2023/12/01 06:22:51;;;;;;;23.58;14.20;;;1.90;99.90;;;;;;5012168;28;20369;-72
2023/12/01 06:25:20;;;;;;;23.83;14.65;;;1.90;99.90;;;;;;5014393;28;20036;-76
2023/12/01 06:27:49;;;;;;;22.40;11.68;;;1.90;99.90;;;;;;5011945;28;20065;-73
2023/12/01 06:30:18;;;;;;;21.85;11.77;;;1.90;99.90;;;;;;4999389;28;20031;-73
2023/12/01 06:32:47;;;;;;;18.50;11.63;;;1.90;99.90;;;;;;5014829;28;20472;-72
2023/12/01 06:35:17;;;;;;;16.23;11.00;;;1.90;99.90;;;;;;5009707;28;20408;-72
2023/12/01 06:37:52;;;;;;;16.88;11.02;;;1.90;99.90;;;;;;5012059;28;20389;-72
2023/12/01 06:40:21;;;;;;;16.95;11.75;;;1.90;99.90;;;;;;5005392;28;20030;-72
2023/12/01 06:42:54;;;;;;;22.42;13.38;;;1.90;99.90;;;;;;5015975;28;20022;-71
2023/12/01 06:45:23;;;;;;;26.70;13.73;;;1.90;99.90;;;;;;5006786;28;20032;-72
2023/12/01 06:47:49;;;;;;;21.73;13.35;;;2.00;99.90;;;;;;4996250;28;20034;-73
2023/12/01 06:50:17;;;;;;;24.00;13.40;;;1.90;99.90;;;;;;5005728;28;20045;-73
2023/12/01 06:52:46;;;;;;;44.42;19.38;;;1.90;99.90;;;;;;5007798;28;20101;-73
2023/12/01 06:55:12;;;;;;;31.83;15.55;;;1.90;99.90;;;;;;5011809;28;20032;-73
2023/12/01 06:57:47;;;;;;;18.10;11.82;;;1.80;99.90;;;;;;5004730;28;20649;-72
2023/12/01 07:02:57;;;;;;;18.25;11.32;;;1.80;99.90;;;;;;5005972;28;20491;-72
2023/12/01 07:05:25;;;;;;;17.77;11.43;;;1.80;99.90;;;;;;5001308;28;20052;-72
2023/12/01 07:07:56;;;;;;;17.25;10.90;;;1.70;99.90;;;;;;5007335;28;20022;-72
2023/12/01 07:10:22;;;;;;;30.42;14.00;;;1.70;99.90;;;;;;5008618;28;20365;-71
2023/12/01 07:12:54;;;;;;;23.25;13.82;;;1.70;99.90;;;;;;5009390;28;20064;-72
2023/12/01 07:15:20;;;;;;;20.33;12.32;;;1.60;99.90;;;;;;5006637;28;20527;-73
2023/12/01 07:17:51;;;;;;;17.48;11.00;;;1.60;99.90;;;;;;5020012;28;20086;-74
2023/12/01 07:20:18;;;;;;;17.83;11.70;;;1.60;99.90;;;;;;5008692;28;20034;-74
2023/12/01 07:22:51;;;;;;;17.25;11.32;;;1.60;99.90;;;;;;5006691;28;20452;-75
2023/12/01 07:25:21;;;;;;;24.58;13.70;;;1.60;99.90;;;;;;5012276;28;20039;-74
2023/12/01 07:28:05;;;;;;;29.95;14.77;;;1.60;99.90;;;;;;5011894;28;20099;-74
2023/12/01 07:30:34;;;;;;;22.60;12.13;;;1.50;99.90;;;;;;5009674;28;20026;-74
2023/12/01 07:33:09;;;;;;;22.92;13.35;;;1.50;99.90;;;;;;5010976;28;20026;-74
2023/12/01 07:35:35;;;;;;;26.73;15.18;;;1.60;99.90;;;;;;5013662;28;20088;-74
2023/12/01 07:38:01;;;;;;;22.10;11.70;;;1.60;99.90;;;;;;5014874;28;20022;-74
2023/12/01 07:40:27;;;;;;;21.85;13.10;;;1.50;99.90;;;;;;5018636;28;20075;-74
2023/12/01 07:42:57;;;;;;;22.08;11.50;;;1.50;99.90;;;;;;5015872;28;20044;-73
2023/12/01 07:45:24;;;;;;;30.08;15.27;;;1.50;99.90;;;;;;5005319;28;20029;-74
2023/12/01 07:47:54;;;;;;;25.67;13.70;;;1.50;99.90;;;;;;5027143;28;20032;-73
2023/12/01 07:50:23;;;;;;;23.52;13.98;;;1.50;99.90;;;;;;5012902;28;20034;-73
2023/12/01 07:52:50;;;;;;;22.17;12.30;;;1.50;99.90;;;;;;5015492;28;20033;-74
2023/12/01 07:55:17;;;;;;;26.55;14.65;;;1.50;99.90;;;;;;5008667;28;20393;-74
2023/12/01 07:57:51;;;;;;;20.60;11.70;;;1.50;99.90;;;;;;5013276;28;20033;-73
2023/12/01 08:00:17;;;;;;;21.00;12.38;;;1.60;99.90;;;;;;5003947;28;20639;-73
2023/12/01 08:02:53;;;;;;;17.73;11.27;;;1.60;99.90;;;;;;5006972;28;20058;-73
2023/12/01 08:05:19;;;;;;;18.85;10.65;;;1.60;99.90;;;;;;5015541;28;20435;-73
2023/12/01 08:07:51;;;;;;;19.10;12.45;;;1.60;99.90;;;;;;5019651;28;20030;-73
2023/12/01 08:10:24;;;;;;;16.67;10.77;;;1.60;99.90;;;;;;5018385;28;20038;-73
2023/12/01 08:12:56;;;;;;;17.45;10.27;;;1.60;99.90;;;;;;5016567;28;20022;-73
2023/12/01 08:15:24;;;;;;;19.30;10.93;;;1.60;99.90;;;;;;5014194;28;20556;-73
2023/12/01 08:17:50;;;;;;;15.15;10.57;;;1.60;99.90;;;;;;5017610;28;20033;-73
2023/12/01 08:20:19;;;;;;;14.48;8.88;;;1.60;99.90;;;;;;5012164;28;20389;-74
2023/12/01 08:22:47;;;;;;;14.05;8.85;;;1.50;99.90;;;;;;5014006;28;20552;-74
2023/12/01 08:25:14;;;;;;;15.02;9.32;;;1.50;99.90;;;;;;5016495;28;20030;-73
2023/12/01 08:27:42;;;;;;;13.65;8.80;;;1.50;99.90;;;;;;5012689;28;20025;-73
2023/12/01 08:30:11;;;;;;;16.65;10.18;;;1.50;99.90;;;;;;5015233;28;20021;-73
2023/12/01 08:32:37;;;;;;;14.65;8.80;;;1.50;99.90;;;;;;5016933;28;20041;-73
2023/12/01 08:35:03;;;;;;;16.27;9.50;;;1.50;99.90;;;;;;5014460;28;20038;-73
2023/12/01 08:37:35;;;;;;;19.75;11.05;;;1.50;99.90;;;;;;5014529;28;20064;-73
2023/12/01 08:40:11;;;;;;;17.75;10.07;;;1.50;99.90;;;;;;5015688;28;20026;-73
2023/12/01 08:42:39;;;;;;;16.70;9.07;;;1.50;99.90;;;;;;5014681;28;20026;-73
2023/12/01 08:45:09;;;;;;;18.58;10.32;;;1.60;99.90;;;;;;5011682;28;20060;-73
2023/12/01 08:47:38;;;;;;;20.00;10.40;;;1.60;99.90;;;;;;5011060;28;20049;-73
2023/12/01 08:50:07;;;;;;;21.98;10.98;;;1.60;99.90;;;;;;5011535;28;20029;-72
2023/12/01 08:52:32;;;;;;;17.95;10.55;;;1.60;99.90;;;;;;5007858;28;20052;-72
2023/12/01 08:54:59;;;;;;;20.50;10.70;;;1.60;99.90;;;;;;5006536;28;20033;-71
2023/12/01 08:57:24;;;;;;;15.18;9.52;;;1.60;99.90;;;;;;5005435;28;20451;-72
2023/12/01 08:59:53;;;;;;;16.88;10.57;;;1.70;99.90;;;;;;5016399;28;20105;-72
2023/12/01 09:02:19;;;;;;;18.95;11.38;;;1.60;99.90;;;;;;5011095;28;20029;-72
2023/12/01 09:04:47;;;;;;;20.17;11.45;;;1.60;99.90;;;;;;5014108;28;20040;-72
2023/12/01 09:07:13;;;;;;;18.63;11.45;;;1.70;99.90;;;;;;5012305;28;20125;-72
2023/12/01 09:09:38;;;;;;;17.38;11.35;;;1.70;99.90;;;;;;5014559;28;20108;-72
2023/12/01 09:12:11;;;;;;;19.00;11.13;;;1.70;99.90;;;;;;5010046;28;20453;-72
2023/12/01 09:14:37;;;;;;;17.02;10.60;;;1.80;99.90;;;;;;5011741;28;20026;-72
2023/12/01 09:17:03;;;;;;;20.35;11.95;;;1.70;99.90;;;;;;5016031;28;20038;-72
2023/12/01 09:19:31;;;;;;;22.27;12.85;;;1.70;99.90;;;;;;5010957;28;20538;-72
2023/12/01 09:21:57;;;;;;;19.63;11.68;;;1.80;99.90;;;;;;5034430;28;20026;-72
2023/12/01 09:24:25;;;;;;;17.98;11.00;;;1.80;99.90;;;;;;5016233;28;20026;-73
2023/12/01 09:26:50;;;;;;;19.50;12.88;;;1.80;99.90;;;;;;5013178;28;20030;-71
2023/12/01 09:29:19;;;;;;;18.02;10.95;;;1.80;99.90;;;;;;5011714;28;20468;-73
2023/12/01 09:31:48;;;;;;;16.20;10.20;;;1.80;99.90;;;;;;5014595;28;20030;-72
2023/12/01 09:34:20;;;;;;;17.48;10.50;;;1.90;99.90;;;;;;5012949;28;20066;-73
2023/12/01 09:36:50;;;;;;;16.30;10.63;;;1.90;99.90;;;;;;5020484;28;20457;-73
2023/12/01 09:39:19;;;;;;;16.52;10.68;;;1.90;99.90;;;;;;5014943;28;20022;-73
2023/12/01 09:41:50;;;;;;;20.52;12.18;;;1.90;99.90;;;;;;5008772;28;20037;-73
2023/12/01 09:44:16;;;;;;;18.20;11.00;;;1.90;99.90;;;;;;5014711;28;20029;-72
2023/12/01 09:46:47;;;;;;;18.13;10.65;;;1.90;99.90;;;;;;5007965;28;20029;-73
2023/12/01 09:49:12;;;;;;;17.67;10.20;;;1.90;99.90;;;;;;5016081;28;20116;-73
2023/12/01 09:51:38;;;;;;;15.77;10.10;;;1.90;99.90;;;;;;5017077;28;20117;-72
2023/12/01 09:54:06;;;;;;;16.10;10.40;;;1.90;99.90;;;;;;5011790;28;20034;-72
2023/12/01 09:56:32;;;;;;;16.27;9.35;;;1.80;99.90;;;;;;5012183;28;20026;-72
2023/12/01 09:58:58;;;;;;;16.23;9.38;;;1.80;99.90;;;;;;5012997;28;20438;-73
2023/12/01 10:01:27;;;;;;;17.38;10.48;;;1.70;99.90;;;;;;5007126;28;20088;-73
2023/12/01 10:03:53;;;;;;;16.52;8.95;;;1.80;99.90;;;;;;5017383;28;20029;-73
2023/12/01 10:06:19;;;;;;;15.50;9.68;;;1.80;99.90;;;;;;5016166;28;20385;-73
2023/12/01 10:08:45;;;;;;;18.38;10.25;;;1.80;99.90;;;;;;5012638;28;20037;-73
2023/12/01 10:11:23;;;;;;;15.77;9.18;;;1.80;99.90;;;;;;5014406;28;20033;-73
2023/12/01 10:13:50;;;;;;;15.07;9.73;;;1.80;99.90;;;;;;5012957;28;20530;-72
2023/12/01 10:16:16;;;;;;;12.48;8.13;;;1.80;99.90;;;;;;5013523;28;20404;-73
2023/12/01 10:19:13;;;;;;;15.18;9.05;;;1.80;99.90;;;;;;5011433;28;20115;-73
2023/12/01 10:21:46;;;;;;;15.05;9.23;;;1.80;99.90;;;;;;5011420;28;20041;-72
2023/12/01 10:24:33;;;;;;;14.00;8.57;;;1.70;99.90;;;;;;5016244;28;20025;-73
2023/12/01 10:27:02;;;;;;;14.38;8.52;;;1.70;99.90;;;;;;5016097;28;20038;-74
2023/12/01 10:29:35;;;;;;;15.02;9.30;;;1.80;99.90;;;;;;5027833;28;20046;-73
2023/12/01 10:32:19;;;;;;;12.05;8.27;;;1.80;99.90;;;;;;5009953;28;20431;-73
2023/12/01 10:34:52;;;;;;;14.00;8.50;;;1.70;99.90;;;;;;5011914;28;20481;-73
2023/12/01 10:37:22;;;;;;;14.27;9.00;;;1.80;99.90;;;;;;5013591;28;20038;-72
2023/12/01 10:39:54;;;;;;;15.20;9.48;;;1.80;99.90;;;;;;5014401;28;20026;-73
2023/12/01 10:42:21;;;;;;;18.60;10.30;;;1.80;99.90;;;;;;5012886;28;20108;-73
2023/12/01 10:44:48;;;;;;;13.00;8.32;;;1.80;99.90;;;;;;5011334;28;20026;-74
2023/12/01 10:47:16;;;;;;;12.88;8.65;;;1.80;99.90;;;;;;5011791;28;20469;-72
2023/12/01 10:49:50;;;;;;;14.80;9.23;;;1.80;99.90;;;;;;5015380;28;20054;-73
2023/12/01 10:52:19;;;;;;;12.75;8.18;;;1.80;99.90;;;;;;5012581;28;20030;-73
2023/12/01 10:54:46;;;;;;;13.60;8.30;;;1.90;99.90;;;;;;5012338;28;20439;-73
2023/12/01 10:57:33;;;;;;;13.57;8.82;;;1.90;99.90;;;;;;5013839;28;20520;-74
2023/12/01 11:00:01;;;;;;;14.27;8.77;;;1.90;99.90;;;;;;5012746;28;20599;-72
2023/12/01 11:02:29;;;;;;;19.90;10.45;;;1.90;99.90;;;;;;5015617;28;20392;-72
2023/12/01 11:04:57;;;;;;;14.48;8.65;;;1.90;99.90;;;;;;5019886;28;20060;-73
2023/12/01 11:07:41;;;;;;;18.85;10.13;;;1.90;99.90;;;;;;5018551;28;20059;-73
2023/12/01 11:10:21;;;;;;;16.80;10.07;;;1.90;99.90;;;;;;5006572;28;20026;-73
2023/12/01 11:13:15;;;;;;;16.92;10.25;;;1.90;99.90;;;;;;5014135;28;20034;-73
2023/12/01 11:15:50;;;;;;;17.10;9.80;;;1.90;99.90;;;;;;5012308;28;20401;-73
2023/12/01 11:18:16;;;;;;;18.33;11.23;;;1.80;99.90;;;;;;5012992;28;20169;-74
2023/12/01 11:20:48;;;;;;;17.13;9.90;;;1.80;99.90;;;;;;5015656;28;20099;-74
2023/12/01 11:23:35;;;;;;;19.17;10.88;;;1.70;99.90;;;;;;5012301;28;20054;-73
2023/12/01 11:26:08;;;;;;;19.52;10.65;;;1.70;99.90;;;;;;5012716;28;20531;-73
2023/12/01 11:31:35;;;;;;;22.80;12.32;;;1.70;99.90;;;;;;5014920;28;20042;-73
2023/12/01 11:34:01;;;;;;;;;;;1.60;99.90;;;;;;5013361;28;20026;-73
2023/12/01 11:36:36;;;;;;;21.40;11.88;;;1.60;99.90;;;;;;5018037;28;19916;-74
2023/12/01 11:41:43;;;;;;;20.42;12.25;;;1.50;99.90;;;;;;5011850;28;20488;-73
2023/12/01 11:44:10;;;;;;;20.35;11.73;;;1.50;99.90;;;;;;5009902;28;20076;-73
2023/12/01 11:46:38;;;;;;;19.45;11.05;;;1.50;99.90;;;;;;5015018;28;20018;-74
2023/12/01 11:49:06;;;;;;;19.55;11.55;;;1.40;99.90;;;;;;5012284;28;20026;-73
2023/12/01 11:51:35;;;;;;;21.40;12.80;;;1.40;99.90;;;;;;5010348;28;20034;-72
2023/12/01 11:54:02;;;;;;;20.48;12.77;;;1.40;99.90;;;;;;5011833;28;20473;-73
2023/12/01 11:56:31;;;;;;;18.88;11.10;;;1.40;99.90;;;;;;5009885;28;20041;-74
2023/12/01 11:59:00;;;;;;;21.63;12.10;;;1.40;99.90;;;;;;5010867;28;20064;-73
2023/12/01 12:01:26;;;;;;;19.70;10.75;;;1.40;99.90;;;;;;5005417;28;20487;-73
2023/12/01 12:03:56;;;;;;;19.63;11.25;;;1.40;99.90;;;;;;5012711;28;20029;-73
2023/12/01 12:06:23;;;;;;;17.98;10.75;;;1.50;99.90;;;;;;5011064;28;20519;-73
2023/12/01 12:08:50;;;;;;;14.85;9.52;;;1.50;99.90;;;;;;5011371;28;20018;-73
2023/12/01 12:11:20;;;;;;;17.15;9.50;;;1.50;99.90;;;;;;5009984;28;20156;-73
2023/12/01 12:13:58;;;;;;;14.75;8.68;;;1.50;99.90;;;;;;5011171;28;20152;-73
2023/12/01 12:16:27;;;;;;;16.05;9.20;;;1.50;99.90;;;;;;5011367;28;20057;-73
2023/12/01 12:19:00;;;;;;;14.50;8.95;;;1.50;99.90;;;;;;5010776;28;20115;-74
2023/12/01 12:21:32;;;;;;;18.05;10.13;;;1.50;99.90;;;;;;5010578;28;20034;-73
2023/12/01 12:24:01;;;;;;;15.05;8.73;;;1.50;99.90;;;;;;5011219;28;20028;-73
2023/12/01 12:26:29;;;;;;;18.67;10.02;;;1.50;99.90;;;;;;5015640;28;20033;-73
2023/12/01 12:29:00;;;;;;;20.00;10.35;;;1.50;99.90;;;;;;5012681;28;20018;-73
2023/12/01 12:31:30;;;;;;;19.17;9.75;;;1.50;99.90;;;;;;5011640;28;20040;-73
2023/12/01 12:33:56;;;;;;;19.38;9.48;;;1.50;99.90;;;;;;5013176;28;20080;-73
2023/12/01 12:36:26;;;;;;;19.10;10.77;;;1.40;99.90;;;;;;5016104;28;20034;-73
2023/12/01 12:38:52;;;;;;;17.20;10.07;;;1.40;99.90;;;;;;5007555;28;20026;-72
2023/12/01 12:41:34;;;;;;;20.20;10.48;;;1.40;99.90;;;;;;5011309;28;20057;-72
2023/12/01 12:44:09;;;;;;;16.83;9.27;;;1.40;99.90;;;;;;5011898;28;20034;-73
2023/12/01 12:47:02;;;;;;;27.48;11.38;;;1.40;99.90;;;;;;5016519;28;20044;-74
2023/12/01 12:49:32;;;;;;;21.20;10.20;;;1.40;99.90;;;;;;5003810;28;20453;-73
2023/12/01 12:51:59;;;;;;;25.98;12.77;;;1.40;99.90;;;;;;5013114;28;20503;-72
2023/12/01 12:54:34;;;;;;;23.70;11.55;;;1.40;99.90;;;;;;5011268;28;20072;-73
2023/12/01 12:57:03;;;;;;;22.40;12.55;;;1.40;99.90;;;;;;5013268;28;21409;-73